sensor_id;sensor_type;location;lat;lon;timestamp;P1;durP1;ratioP1;P2;durP2;ratioP2
34960;SDS011;30789;52.030;7.110;2022-10-31T00:00:43;12.82;;;8.98;;
34960;SDS011;30789;52.030;7.110;2022-10-31T00:03:10;17.45;;;11.65;;
34960;SDS011;30789;52.030;7.110;2022-10-31T00:05:40;16.17;;;10.20;;
34960;SDS011;30789;52.030;7.110;2022-10-31T00:08:08;17.88;;;10.85;;
34960;SDS011;30789;52.030;7.110;2022-10-31T00:10:36;17.10;;;10.85;;
34960;SDS011;30789;52.030;7.110;2022-10-31T00:13:03;15.63;;;10.57;;
34960;SDS011;30789;52.030;7.110;2022-10-31T00:15:31;18.15;;;10.80;;
34960;SDS011;30789;52.030;7.110;2022-10-31T00:17:58;17.15;;;10.57;;
34960;SDS011;30789;52.030;7.110;2022-10-31T00:20:25;18.40;;;10.68;;
34960;SDS011;30789;52.030;7.110;2022-10-31T00:22:51;17.25;;;10.70;;
34960;SDS011;30789;52.030;7.110;2022-10-31T00:25:19;23.88;;;10.77;;
34960;SDS011;30789;52.030;7.110;2022-10-31T00:27:45;16.33;;;10.43;;
34960;SDS011;30789;52.030;7.110;2022-10-31T00:30:12;17.67;;;11.20;;
34960;SDS011;30789;52.030;7.110;2022-10-31T00:32:38;18.50;;;10.90;;
34960;SDS011;30789;52.030;7.110;2022-10-31T00:35:05;16.45;;;11.32;;
34960;SDS011;30789;52.030;7.110;2022-10-31T00:37:32;18.52;;;11.05;;
34960;SDS011;30789;52.030;7.110;2022-10-31T00:39:58;17.17;;;10.57;;
34960;SDS011;30789;52.030;7.110;2022-10-31T00:42:26;17.80;;;11.10;;
34960;SDS011;30789;52.030;7.110;2022-10-31T00:44:53;19.15;;;11.15;;
34960;SDS011;30789;52.030;7.110;2022-10-31T00:47:19;19.10;;;11.57;;
34960;SDS011;30789;52.030;7.110;2022-10-31T00:49:45;17.17;;;10.65;;
34960;SDS011;30789;52.030;7.110;2022-10-31T00:52:12;21.33;;;10.90;;
34960;SDS011;30789;52.030;7.110;2022-10-31T00:54:38;19.70;;;11.30;;
34960;SDS011;30789;52.030;7.110;2022-10-31T00:57:05;20.48;;;11.85;;
34960;SDS011;30789;52.030;7.110;2022-10-31T00:59:32;19.25;;;11.80;;
34960;SDS011;30789;52.030;7.110;2022-10-31T01:01:59;14.38;;;9.55;;
34960;SDS011;30789;52.030;7.110;2022-10-31T01:04:25;18.58;;;11.07;;
34960;SDS011;30789;52.030;7.110;2022-10-31T01:06:52;13.55;;;10.68;;
34960;SDS011;30789;52.030;7.110;2022-10-31T01:09:18;17.38;;;10.45;;
34960;SDS011;30789;52.030;7.110;2022-10-31T01:11:45;17.30;;;9.88;;
34960;SDS011;30789;52.030;7.110;2022-10-31T01:14:11;18.13;;;10.00;;
34960;SDS011;30789;52.030;7.110;2022-10-31T01:16:39;19.52;;;10.82;;
34960;SDS011;30789;52.030;7.110;2022-10-31T01:19:05;14.10;;;10.00;;
34960;SDS011;30789;52.030;7.110;2022-10-31T01:21:32;19.73;;;10.88;;
34960;SDS011;30789;52.030;7.110;2022-10-31T01:23:58;18.63;;;10.93;;
34960;SDS011;30789;52.030;7.110;2022-10-31T01:26:27;17.20;;;10.60;;
34960;SDS011;30789;52.030;7.110;2022-10-31T01:28:56;17.83;;;11.43;;
34960;SDS011;30789;52.030;7.110;2022-10-31T01:31:24;16.65;;;10.55;;
34960;SDS011;30789;52.030;7.110;2022-10-31T01:33:53;14.85;;;9.57;;
34960;SDS011;30789;52.030;7.110;2022-10-31T01:36:21;15.68;;;10.57;;
34960;SDS011;30789;52.030;7.110;2022-10-31T01:38:49;18.02;;;10.90;;
34960;SDS011;30789;52.030;7.110;2022-10-31T01:41:18;22.75;;;11.68;;
34960;SDS011;30789;52.030;7.110;2022-10-31T01:43:47;17.95;;;10.13;;
34960;SDS011;30789;52.030;7.110;2022-10-31T01:46:17;22.48;;;11.60;;
34960;SDS011;30789;52.030;7.110;2022-10-31T01:48:46;16.08;;;10.10;;
34960;SDS011;30789;52.030;7.110;2022-10-31T01:51:14;18.08;;;11.70;;
34960;SDS011;30789;52.030;7.110;2022-10-31T01:53:44;22.40;;;11.57;;
34960;SDS011;30789;52.030;7.110;2022-10-31T01:56:12;18.38;;;11.10;;
34960;SDS011;30789;52.030;7.110;2022-10-31T01:58:41;22.80;;;11.90;;
34960;SDS011;30789;52.030;7.110;2022-10-31T02:01:08;22.27;;;12.68;;
34960;SDS011;30789;52.030;7.110;2022-10-31T02:03:36;23.23;;;12.52;;
34960;SDS011;30789;52.030;7.110;2022-10-31T02:06:02;24.75;;;13.10;;
34960;SDS011;30789;52.030;7.110;2022-10-31T02:08:33;20.33;;;12.02;;
34960;SDS011;30789;52.030;7.110;2022-10-31T02:11:02;21.52;;;13.38;;
34960;SDS011;30789;52.030;7.110;2022-10-31T02:13:28;20.35;;;12.73;;
34960;SDS011;30789;52.030;7.110;2022-10-31T02:15:56;21.13;;;12.70;;
34960;SDS011;30789;52.030;7.110;2022-10-31T02:18:24;22.33;;;13.60;;
34960;SDS011;30789;52.030;7.110;2022-10-31T02:20:56;20.55;;;12.25;;
34960;SDS011;30789;52.030;7.110;2022-10-31T02:23:54;21.58;;;12.75;;
34960;SDS011;30789;52.030;7.110;2022-10-31T02:26:45;21.55;;;12.35;;
34960;SDS011;30789;52.030;7.110;2022-10-31T02:29:37;18.17;;;11.70;;
34960;SDS011;30789;52.030;7.110;2022-10-31T02:32:20;18.65;;;12.00;;
34960;SDS011;30789;52.030;7.110;2022-10-31T02:34:55;21.08;;;12.32;;
34960;SDS011;30789;52.030;7.110;2022-10-31T02:37:31;20.50;;;12.18;;
34960;SDS011;30789;52.030;7.110;2022-10-31T02:40:04;21.02;;;11.93;;
34960;SDS011;30789;52.030;7.110;2022-10-31T02:42:38;18.27;;;12.30;;
34960;SDS011;30789;52.030;7.110;2022-10-31T02:45:14;17.77;;;12.15;;
34960;SDS011;30789;52.030;7.110;2022-10-31T02:47:47;20.83;;;13.63;;
34960;SDS011;30789;52.030;7.110;2022-10-31T02:50:17;23.95;;;14.82;;
34960;SDS011;30789;52.030;7.110;2022-10-31T02:52:49;23.73;;;13.68;;
34960;SDS011;30789;52.030;7.110;2022-10-31T02:58:21;24.52;;;15.23;;
34960;SDS011;30789;52.030;7.110;2022-10-31T03:00:55;22.27;;;14.43;;
34960;SDS011;30789;52.030;7.110;2022-10-31T03:03:33;28.33;;;15.32;;
34960;SDS011;30789;52.030;7.110;2022-10-31T03:06:06;21.88;;;13.82;;
34960;SDS011;30789;52.030;7.110;2022-10-31T03:08:39;20.63;;;14.02;;
34960;SDS011;30789;52.030;7.110;2022-10-31T03:11:14;22.60;;;13.80;;
34960;SDS011;30789;52.030;7.110;2022-10-31T03:13:47;19.77;;;13.95;;
34960;SDS011;30789;52.030;7.110;2022-10-31T03:16:18;20.35;;;13.88;;
34960;SDS011;30789;52.030;7.110;2022-10-31T03:18:55;22.33;;;14.02;;
34960;SDS011;30789;52.030;7.110;2022-10-31T03:21:27;18.77;;;12.40;;
34960;SDS011;30789;52.030;7.110;2022-10-31T03:23:57;18.52;;;12.07;;
34960;SDS011;30789;52.030;7.110;2022-10-31T03:26:25;22.60;;;13.15;;
34960;SDS011;30789;52.030;7.110;2022-10-31T03:28:54;24.17;;;13.57;;
34960;SDS011;30789;52.030;7.110;2022-10-31T03:31:25;22.33;;;13.40;;
34960;SDS011;30789;52.030;7.110;2022-10-31T03:33:57;16.60;;;12.20;;
34960;SDS011;30789;52.030;7.110;2022-10-31T03:36:26;22.23;;;12.80;;
34960;SDS011;30789;52.030;7.110;2022-10-31T03:38:54;19.70;;;12.45;;
34960;SDS011;30789;52.030;7.110;2022-10-31T03:41:23;19.35;;;12.00;;
34960;SDS011;30789;52.030;7.110;2022-10-31T03:43:55;18.70;;;12.45;;
34960;SDS011;30789;52.030;7.110;2022-10-31T03:46:25;23.30;;;13.02;;
34960;SDS011;30789;52.030;7.110;2022-10-31T03:48:52;19.45;;;12.48;;
34960;SDS011;30789;52.030;7.110;2022-10-31T03:51:22;20.25;;;12.65;;
34960;SDS011;30789;52.030;7.110;2022-10-31T03:53:52;19.48;;;12.82;;
34960;SDS011;30789;52.030;7.110;2022-10-31T03:56:23;20.42;;;12.45;;
34960;SDS011;30789;52.030;7.110;2022-10-31T03:58:57;20.10;;;12.98;;
34960;SDS011;30789;52.030;7.110;2022-10-31T04:01:27;22.95;;;13.25;;
34960;SDS011;30789;52.030;7.110;2022-10-31T04:03:56;19.00;;;13.02;;
34960;SDS011;30789;52.030;7.110;2022-10-31T04:06:25;22.67;;;12.95;;
34960;SDS011;30789;52.030;7.110;2022-10-31T04:08:52;18.00;;;12.48;;
34960;SDS011;30789;52.030;7.110;2022-10-31T04:11:23;19.65;;;11.75;;
34960;SDS011;30789;52.030;7.110;2022-10-31T04:13:53;19.55;;;11.45;;
34960;SDS011;30789;52.030;7.110;2022-10-31T04:16:21;20.13;;;11.68;;
34960;SDS011;30789;52.030;7.110;2022-10-31T04:18:50;21.70;;;11.95;;
34960;SDS011;30789;52.030;7.110;2022-10-31T04:21:17;18.77;;;12.32;;
34960;SDS011;30789;52.030;7.110;2022-10-31T04:23:45;24.05;;;13.13;;
34960;SDS011;30789;52.030;7.110;2022-10-31T04:26:11;29.35;;;13.02;;
34960;SDS011;30789;52.030;7.110;2022-10-31T04:28:39;20.35;;;12.30;;
34960;SDS011;30789;52.030;7.110;2022-10-31T04:31:05;20.48;;;12.40;;
34960;SDS011;30789;52.030;7.110;2022-10-31T04:33:31;22.15;;;12.88;;
34960;SDS011;30789;52.030;7.110;2022-10-31T04:35:58;21.00;;;12.48;;
34960;SDS011;30789;52.030;7.110;2022-10-31T04:38:24;20.23;;;12.15;;
34960;SDS011;30789;52.030;7.110;2022-10-31T04:40:52;23.27;;;12.27;;
34960;SDS011;30789;52.030;7.110;2022-10-31T04:43:18;19.05;;;12.35;;
34960;SDS011;30789;52.030;7.110;2022-10-31T04:45:45;21.08;;;11.65;;
34960;SDS011;30789;52.030;7.110;2022-10-31T04:48:11;19.20;;;12.10;;
34960;SDS011;30789;52.030;7.110;2022-10-31T04:50:38;20.73;;;11.73;;
34960;SDS011;30789;52.030;7.110;2022-10-31T04:53:04;20.08;;;11.73;;
34960;SDS011;30789;52.030;7.110;2022-10-31T04:55:31;20.48;;;11.65;;
34960;SDS011;30789;52.030;7.110;2022-10-31T04:57:58;16.73;;;11.10;;
34960;SDS011;30789;52.030;7.110;2022-10-31T05:00:25;22.83;;;12.48;;
34960;SDS011;30789;52.030;7.110;2022-10-31T05:02:52;16.50;;;11.45;;
34960;SDS011;30789;52.030;7.110;2022-10-31T05:05:20;21.58;;;11.57;;
34960;SDS011;30789;52.030;7.110;2022-10-31T05:07:50;21.27;;;11.85;;
34960;SDS011;30789;52.030;7.110;2022-10-31T05:10:17;20.92;;;11.70;;
34960;SDS011;30789;52.030;7.110;2022-10-31T05:12:46;19.10;;;12.70;;
34960;SDS011;30789;52.030;7.110;2022-10-31T05:15:15;19.67;;;11.40;;
34960;SDS011;30789;52.030;7.110;2022-10-31T05:17:42;17.23;;;11.50;;
34960;SDS011;30789;52.030;7.110;2022-10-31T05:20:09;17.98;;;11.50;;
34960;SDS011;30789;52.030;7.110;2022-10-31T05:22:36;16.02;;;11.07;;
34960;SDS011;30789;52.030;7.110;2022-10-31T05:25:03;15.77;;;10.93;;
34960;SDS011;30789;52.030;7.110;2022-10-31T05:27:29;17.65;;;11.38;;
34960;SDS011;30789;52.030;7.110;2022-10-31T05:29:56;19.40;;;11.48;;
34960;SDS011;30789;52.030;7.110;2022-10-31T05:32:23;20.27;;;11.80;;
34960;SDS011;30789;52.030;7.110;2022-10-31T05:34:50;17.80;;;12.23;;
34960;SDS011;30789;52.030;7.110;2022-10-31T05:37:16;18.15;;;11.70;;
34960;SDS011;30789;52.030;7.110;2022-10-31T05:39:43;20.35;;;12.40;;
34960;SDS011;30789;52.030;7.110;2022-10-31T05:42:09;15.88;;;10.82;;
34960;SDS011;30789;52.030;7.110;2022-10-31T05:44:35;20.88;;;13.25;;
34960;SDS011;30789;52.030;7.110;2022-10-31T05:47:02;17.77;;;12.13;;
34960;SDS011;30789;52.030;7.110;2022-10-31T05:49:30;17.85;;;11.13;;
34960;SDS011;30789;52.030;7.110;2022-10-31T05:51:56;16.15;;;10.82;;
34960;SDS011;30789;52.030;7.110;2022-10-31T05:54:23;16.38;;;10.15;;
34960;SDS011;30789;52.030;7.110;2022-10-31T05:56:49;16.73;;;10.45;;
34960;SDS011;30789;52.030;7.110;2022-10-31T05:59:15;16.30;;;11.43;;
34960;SDS011;30789;52.030;7.110;2022-10-31T06:01:42;15.85;;;10.63;;
34960;SDS011;30789;52.030;7.110;2022-10-31T06:04:08;18.30;;;11.15;;
34960;SDS011;30789;52.030;7.110;2022-10-31T06:06:36;16.05;;;10.82;;
34960;SDS011;30789;52.030;7.110;2022-10-31T06:09:02;21.95;;;11.25;;
34960;SDS011;30789;52.030;7.110;2022-10-31T06:11:29;16.20;;;11.20;;
34960;SDS011;30789;52.030;7.110;2022-10-31T06:13:55;16.50;;;10.52;;
34960;SDS011;30789;52.030;7.110;2022-10-31T06:16:23;15.48;;;10.15;;
34960;SDS011;30789;52.030;7.110;2022-10-31T06:18:49;15.48;;;10.00;;
34960;SDS011;30789;52.030;7.110;2022-10-31T06:21:16;17.23;;;9.82;;
34960;SDS011;30789;52.030;7.110;2022-10-31T06:23:44;16.58;;;10.52;;
34960;SDS011;30789;52.030;7.110;2022-10-31T06:26:10;16.50;;;10.68;;
34960;SDS011;30789;52.030;7.110;2022-10-31T06:28:36;19.08;;;10.25;;
34960;SDS011;30789;52.030;7.110;2022-10-31T06:31:03;14.35;;;10.50;;
34960;SDS011;30789;52.030;7.110;2022-10-31T06:33:29;14.90;;;9.80;;
34960;SDS011;30789;52.030;7.110;2022-10-31T06:35:56;17.33;;;8.88;;
34960;SDS011;30789;52.030;7.110;2022-10-31T06:38:22;12.45;;;9.43;;
34960;SDS011;30789;52.030;7.110;2022-10-31T06:40:50;14.73;;;9.77;;
34960;SDS011;30789;52.030;7.110;2022-10-31T06:43:16;15.90;;;9.18;;
34960;SDS011;30789;52.030;7.110;2022-10-31T06:45:43;12.57;;;9.55;;
34960;SDS011;30789;52.030;7.110;2022-10-31T06:48:09;13.20;;;8.73;;
34960;SDS011;30789;52.030;7.110;2022-10-31T06:50:36;15.73;;;9.55;;
34960;SDS011;30789;52.030;7.110;2022-10-31T06:53:02;17.23;;;10.35;;
34960;SDS011;30789;52.030;7.110;2022-10-31T06:55:29;17.30;;;10.45;;
34960;SDS011;30789;52.030;7.110;2022-10-31T06:57:57;19.13;;;9.98;;
34960;SDS011;30789;52.030;7.110;2022-10-31T07:00:27;15.88;;;9.65;;
34960;SDS011;30789;52.030;7.110;2022-10-31T07:02:55;17.48;;;9.40;;
34960;SDS011;30789;52.030;7.110;2022-10-31T07:05:23;18.02;;;10.75;;
34960;SDS011;30789;52.030;7.110;2022-10-31T07:07:53;14.70;;;9.77;;
34960;SDS011;30789;52.030;7.110;2022-10-31T07:10:20;17.02;;;9.85;;
34960;SDS011;30789;52.030;7.110;2022-10-31T07:12:47;14.65;;;8.70;;
34960;SDS011;30789;52.030;7.110;2022-10-31T07:15:15;15.40;;;9.05;;
34960;SDS011;30789;52.030;7.110;2022-10-31T07:17:41;21.10;;;10.10;;
34960;SDS011;30789;52.030;7.110;2022-10-31T07:20:08;18.35;;;10.00;;
34960;SDS011;30789;52.030;7.110;2022-10-31T07:22:36;13.82;;;10.27;;
34960;SDS011;30789;52.030;7.110;2022-10-31T07:25:03;14.27;;;9.65;;
34960;SDS011;30789;52.030;7.110;2022-10-31T07:27:34;21.65;;;9.98;;
34960;SDS011;30789;52.030;7.110;2022-10-31T07:30:02;16.50;;;9.15;;
34960;SDS011;30789;52.030;7.110;2022-10-31T07:32:38;14.20;;;9.88;;
34960;SDS011;30789;52.030;7.110;2022-10-31T07:35:05;15.20;;;9.20;;
34960;SDS011;30789;52.030;7.110;2022-10-31T07:37:32;14.75;;;9.57;;
34960;SDS011;30789;52.030;7.110;2022-10-31T07:39:59;15.18;;;9.35;;
34960;SDS011;30789;52.030;7.110;2022-10-31T07:42:26;17.88;;;9.98;;
34960;SDS011;30789;52.030;7.110;2022-10-31T07:44:53;14.15;;;9.50;;
34960;SDS011;30789;52.030;7.110;2022-10-31T07:47:19;18.33;;;10.07;;
34960;SDS011;30789;52.030;7.110;2022-10-31T07:49:47;21.30;;;10.48;;
34960;SDS011;30789;52.030;7.110;2022-10-31T07:52:13;15.15;;;10.30;;
34960;SDS011;30789;52.030;7.110;2022-10-31T07:54:40;13.32;;;9.45;;
34960;SDS011;30789;52.030;7.110;2022-10-31T07:57:07;15.38;;;10.25;;
34960;SDS011;30789;52.030;7.110;2022-10-31T07:59:33;16.05;;;10.77;;
34960;SDS011;30789;52.030;7.110;2022-10-31T08:01:59;14.55;;;10.07;;
34960;SDS011;30789;52.030;7.110;2022-10-31T08:04:26;16.80;;;10.80;;
34960;SDS011;30789;52.030;7.110;2022-10-31T08:06:54;17.60;;;10.20;;
34960;SDS011;30789;52.030;7.110;2022-10-31T08:09:20;16.35;;;10.57;;
34960;SDS011;30789;52.030;7.110;2022-10-31T08:11:46;17.55;;;10.60;;
34960;SDS011;30789;52.030;7.110;2022-10-31T08:14:13;13.93;;;9.38;;
34960;SDS011;30789;52.030;7.110;2022-10-31T08:16:39;17.38;;;9.95;;
34960;SDS011;30789;52.030;7.110;2022-10-31T08:19:06;15.88;;;10.23;;
34960;SDS011;30789;52.030;7.110;2022-10-31T08:21:32;20.27;;;10.73;;
34960;SDS011;30789;52.030;7.110;2022-10-31T08:24:01;19.90;;;12.18;;
34960;SDS011;30789;52.030;7.110;2022-10-31T08:26:27;19.10;;;11.32;;
34960;SDS011;30789;52.030;7.110;2022-10-31T08:28:54;20.88;;;11.27;;
34960;SDS011;30789;52.030;7.110;2022-10-31T08:31:20;20.10;;;10.60;;
34960;SDS011;30789;52.030;7.110;2022-10-31T08:33:47;17.27;;;10.48;;
34960;SDS011;30789;52.030;7.110;2022-10-31T08:36:14;19.63;;;11.45;;
34960;SDS011;30789;52.030;7.110;2022-10-31T08:38:40;15.60;;;10.95;;
34960;SDS011;30789;52.030;7.110;2022-10-31T08:41:08;19.98;;;10.60;;
34960;SDS011;30789;52.030;7.110;2022-10-31T08:43:35;17.23;;;10.90;;
34960;SDS011;30789;52.030;7.110;2022-10-31T08:46:01;16.13;;;10.85;;
34960;SDS011;30789;52.030;7.110;2022-10-31T08:48:28;22.50;;;11.73;;
34960;SDS011;30789;52.030;7.110;2022-10-31T08:50:55;19.88;;;10.30;;
34960;SDS011;30789;52.030;7.110;2022-10-31T08:53:22;15.30;;;9.30;;
34960;SDS011;30789;52.030;7.110;2022-10-31T08:55:49;15.85;;;9.02;;
34960;SDS011;30789;52.030;7.110;2022-10-31T08:58:17;19.23;;;8.65;;
34960;SDS011;30789;52.030;7.110;2022-10-31T09:00:45;12.90;;;7.90;;
34960;SDS011;30789;52.030;7.110;2022-10-31T09:03:13;13.80;;;7.47;;
34960;SDS011;30789;52.030;7.110;2022-10-31T09:05:41;13.13;;;7.40;;
34960;SDS011;30789;52.030;7.110;2022-10-31T09:08:08;12.43;;;6.70;;
34960;SDS011;30789;52.030;7.110;2022-10-31T09:10:36;12.63;;;6.60;;
34960;SDS011;30789;52.030;7.110;2022-10-31T09:13:03;11.93;;;6.57;;
34960;SDS011;30789;52.030;7.110;2022-10-31T09:15:33;10.75;;;5.60;;
34960;SDS011;30789;52.030;7.110;2022-10-31T09:18:00;9.10;;;5.45;;
34960;SDS011;30789;52.030;7.110;2022-10-31T09:20:26;9.75;;;5.50;;
34960;SDS011;30789;52.030;7.110;2022-10-31T09:22:56;7.18;;;4.63;;
34960;SDS011;30789;52.030;7.110;2022-10-31T09:25:24;6.88;;;4.78;;
34960;SDS011;30789;52.030;7.110;2022-10-31T09:27:51;8.23;;;4.25;;
34960;SDS011;30789;52.030;7.110;2022-10-31T09:30:21;5.45;;;3.28;;
34960;SDS011;30789;52.030;7.110;2022-10-31T09:32:54;4.93;;;2.88;;
34960;SDS011;30789;52.030;7.110;2022-10-31T09:35:23;4.25;;;2.75;;
34960;SDS011;30789;52.030;7.110;2022-10-31T09:37:53;4.05;;;2.63;;
34960;SDS011;30789;52.030;7.110;2022-10-31T09:40:20;5.15;;;2.80;;
34960;SDS011;30789;52.030;7.110;2022-10-31T09:42:50;5.22;;;2.72;;
34960;SDS011;30789;52.030;7.110;2022-10-31T09:45:23;4.20;;;2.80;;
34960;SDS011;30789;52.030;7.110;2022-10-31T09:48:02;4.05;;;2.45;;
34960;SDS011;30789;52.030;7.110;2022-10-31T09:50:39;2.67;;;1.98;;
34960;SDS011;30789;52.030;7.110;2022-10-31T09:53:21;4.60;;;2.42;;
34960;SDS011;30789;52.030;7.110;2022-10-31T09:55:52;6.67;;;2.83;;
34960;SDS011;30789;52.030;7.110;2022-10-31T09:58:20;3.13;;;2.25;;
34960;SDS011;30789;52.030;7.110;2022-10-31T10:00:50;3.80;;;2.60;;
34960;SDS011;30789;52.030;7.110;2022-10-31T10:03:24;4.50;;;2.85;;
34960;SDS011;30789;52.030;7.110;2022-10-31T10:05:57;7.38;;;2.97;;
34960;SDS011;30789;52.030;7.110;2022-10-31T10:08:32;8.10;;;3.40;;
34960;SDS011;30789;52.030;7.110;2022-10-31T10:11:03;5.03;;;3.70;;
34960;SDS011;30789;52.030;7.110;2022-10-31T10:13:45;5.97;;;3.65;;
34960;SDS011;30789;52.030;7.110;2022-10-31T10:16:30;7.03;;;3.65;;
34960;SDS011;30789;52.030;7.110;2022-10-31T10:19:13;5.88;;;3.38;;
34960;SDS011;30789;52.030;7.110;2022-10-31T10:21:50;7.28;;;4.25;;
34960;SDS011;30789;52.030;7.110;2022-10-31T10:24:30;6.53;;;3.70;;
34960;SDS011;30789;52.030;7.110;2022-10-31T10:27:15;11.15;;;4.60;;
34960;SDS011;30789;52.030;7.110;2022-10-31T10:29:47;10.82;;;5.60;;
34960;SDS011;30789;52.030;7.110;2022-10-31T10:32:19;10.93;;;6.47;;
34960;SDS011;30789;52.030;7.110;2022-10-31T10:34:51;11.32;;;5.88;;
34960;SDS011;30789;52.030;7.110;2022-10-31T10:37:25;10.07;;;6.88;;
34960;SDS011;30789;52.030;7.110;2022-10-31T10:39:58;12.20;;;7.07;;
34960;SDS011;30789;52.030;7.110;2022-10-31T10:42:34;18.42;;;7.55;;
34960;SDS011;30789;52.030;7.110;2022-10-31T10:45:19;16.50;;;7.30;;
34960;SDS011;30789;52.030;7.110;2022-10-31T10:48:10;15.50;;;7.68;;
34960;SDS011;30789;52.030;7.110;2022-10-31T10:50:44;16.58;;;7.60;;
34960;SDS011;30789;52.030;7.110;2022-10-31T10:53:18;13.68;;;8.27;;
34960;SDS011;30789;52.030;7.110;2022-10-31T10:56:02;17.63;;;8.23;;
34960;SDS011;30789;52.030;7.110;2022-10-31T10:58:37;15.95;;;7.50;;
34960;SDS011;30789;52.030;7.110;2022-10-31T11:01:08;12.55;;;7.90;;
34960;SDS011;30789;52.030;7.110;2022-10-31T11:03:37;11.38;;;7.18;;
34960;SDS011;30789;52.030;7.110;2022-10-31T11:06:15;16.13;;;8.43;;
34960;SDS011;30789;52.030;7.110;2022-10-31T11:08:45;16.92;;;8.93;;
34960;SDS011;30789;52.030;7.110;2022-10-31T11:11:23;16.83;;;9.40;;
34960;SDS011;30789;52.030;7.110;2022-10-31T11:13:55;19.45;;;10.52;;
34960;SDS011;30789;52.030;7.110;2022-10-31T11:16:28;20.73;;;9.23;;
34960;SDS011;30789;52.030;7.110;2022-10-31T11:19:07;18.15;;;10.07;;
34960;SDS011;30789;52.030;7.110;2022-10-31T11:21:42;15.82;;;9.40;;
34960;SDS011;30789;52.030;7.110;2022-10-31T11:24:12;19.02;;;10.15;;
34960;SDS011;30789;52.030;7.110;2022-10-31T11:26:42;16.60;;;9.73;;
34960;SDS011;30789;52.030;7.110;2022-10-31T11:29:14;19.83;;;10.45;;
34960;SDS011;30789;52.030;7.110;2022-10-31T11:31:44;15.05;;;9.23;;
34960;SDS011;30789;52.030;7.110;2022-10-31T11:34:14;18.42;;;9.43;;
34960;SDS011;30789;52.030;7.110;2022-10-31T11:36:53;19.10;;;10.27;;
34960;SDS011;30789;52.030;7.110;2022-10-31T11:39:23;14.27;;;9.98;;
34960;SDS011;30789;52.030;7.110;2022-10-31T11:41:51;16.30;;;10.45;;
34960;SDS011;30789;52.030;7.110;2022-10-31T11:44:20;16.73;;;10.20;;
34960;SDS011;30789;52.030;7.110;2022-10-31T11:46:48;17.70;;;10.32;;
34960;SDS011;30789;52.030;7.110;2022-10-31T11:49:17;18.48;;;10.90;;
34960;SDS011;30789;52.030;7.110;2022-10-31T11:51:47;16.88;;;10.45;;
34960;SDS011;30789;52.030;7.110;2022-10-31T11:54:20;17.83;;;11.43;;
34960;SDS011;30789;52.030;7.110;2022-10-31T11:56:49;19.63;;;10.85;;
34960;SDS011;30789;52.030;7.110;2022-10-31T11:59:17;19.40;;;10.63;;
34960;SDS011;30789;52.030;7.110;2022-10-31T12:01:49;16.55;;;11.55;;
34960;SDS011;30789;52.030;7.110;2022-10-31T12:04:16;18.58;;;11.52;;
34960;SDS011;30789;52.030;7.110;2022-10-31T12:06:43;18.23;;;12.05;;
34960;SDS011;30789;52.030;7.110;2022-10-31T12:09:18;16.98;;;12.07;;
34960;SDS011;30789;52.030;7.110;2022-10-31T12:11:52;20.02;;;11.35;;
34960;SDS011;30789;52.030;7.110;2022-10-31T12:14:37;22.83;;;12.38;;
34960;SDS011;30789;52.030;7.110;2022-10-31T12:17:13;18.88;;;12.35;;
34960;SDS011;30789;52.030;7.110;2022-10-31T12:19:45;21.25;;;13.20;;
34960;SDS011;30789;52.030;7.110;2022-10-31T12:22:26;23.27;;;12.70;;
34960;SDS011;30789;52.030;7.110;2022-10-31T12:25:15;23.80;;;12.88;;
34960;SDS011;30789;52.030;7.110;2022-10-31T12:28:03;24.23;;;13.32;;
34960;SDS011;30789;52.030;7.110;2022-10-31T12:30:40;25.85;;;14.68;;
34960;SDS011;30789;52.030;7.110;2022-10-31T12:33:36;25.52;;;14.48;;
34960;SDS011;30789;52.030;7.110;2022-10-31T12:36:21;23.40;;;12.57;;
34960;SDS011;30789;52.030;7.110;2022-10-31T12:39:12;23.15;;;13.95;;
34960;SDS011;30789;52.030;7.110;2022-10-31T12:44:28;23.40;;;14.32;;
34960;SDS011;30789;52.030;7.110;2022-10-31T12:47:07;24.17;;;14.37;;
34960;SDS011;30789;52.030;7.110;2022-10-31T12:50:02;24.85;;;14.82;;
34960;SDS011;30789;52.030;7.110;2022-10-31T12:52:45;24.25;;;13.98;;
34960;SDS011;30789;52.030;7.110;2022-10-31T12:55:28;24.90;;;14.38;;
34960;SDS011;30789;52.030;7.110;2022-10-31T12:58:07;24.10;;;14.60;;
34960;SDS011;30789;52.030;7.110;2022-10-31T13:00:37;22.50;;;14.70;;
34960;SDS011;30789;52.030;7.110;2022-10-31T13:03:10;23.27;;;15.20;;
34960;SDS011;30789;52.030;7.110;2022-10-31T13:05:48;27.70;;;16.90;;
34960;SDS011;30789;52.030;7.110;2022-10-31T13:08:19;22.40;;;14.45;;
34960;SDS011;30789;52.030;7.110;2022-10-31T13:10:52;25.47;;;14.03;;
34960;SDS011;30789;52.030;7.110;2022-10-31T13:13:31;22.35;;;14.52;;
34960;SDS011;30789;52.030;7.110;2022-10-31T13:16:02;22.33;;;14.07;;
34960;SDS011;30789;52.030;7.110;2022-10-31T13:18:35;24.85;;;14.57;;
34960;SDS011;30789;52.030;7.110;2022-10-31T13:21:07;26.55;;;14.35;;
34960;SDS011;30789;52.030;7.110;2022-10-31T13:23:37;24.00;;;14.68;;
34960;SDS011;30789;52.030;7.110;2022-10-31T13:26:06;27.98;;;15.30;;
34960;SDS011;30789;52.030;7.110;2022-10-31T13:28:39;26.15;;;16.73;;
34960;SDS011;30789;52.030;7.110;2022-10-31T13:31:10;24.00;;;14.82;;
34960;SDS011;30789;52.030;7.110;2022-10-31T13:33:38;26.52;;;17.20;;
34960;SDS011;30789;52.030;7.110;2022-10-31T13:36:14;23.05;;;15.65;;
34960;SDS011;30789;52.030;7.110;2022-10-31T13:38:51;25.83;;;15.45;;
34960;SDS011;30789;52.030;7.110;2022-10-31T13:41:26;30.37;;;16.33;;
34960;SDS011;30789;52.030;7.110;2022-10-31T13:44:04;28.23;;;15.55;;
34960;SDS011;30789;52.030;7.110;2022-10-31T13:46:38;29.45;;;15.68;;
34960;SDS011;30789;52.030;7.110;2022-10-31T13:49:21;24.08;;;15.38;;
34960;SDS011;30789;52.030;7.110;2022-10-31T13:51:51;33.88;;;16.38;;
34960;SDS011;30789;52.030;7.110;2022-10-31T13:54:22;32.38;;;17.15;;
34960;SDS011;30789;52.030;7.110;2022-10-31T13:56:57;27.13;;;15.13;;
34960;SDS011;30789;52.030;7.110;2022-10-31T13:59:25;28.38;;;16.00;;
34960;SDS011;30789;52.030;7.110;2022-10-31T14:01:54;26.90;;;16.55;;
34960;SDS011;30789;52.030;7.110;2022-10-31T14:04:23;29.30;;;15.70;;
34960;SDS011;30789;52.030;7.110;2022-10-31T14:06:53;27.77;;;15.82;;
34960;SDS011;30789;52.030;7.110;2022-10-31T14:09:24;26.02;;;15.40;;
34960;SDS011;30789;52.030;7.110;2022-10-31T14:11:56;27.17;;;15.32;;
34960;SDS011;30789;52.030;7.110;2022-10-31T14:14:29;26.42;;;15.10;;
34960;SDS011;30789;52.030;7.110;2022-10-31T14:16:59;29.48;;;16.30;;
34960;SDS011;30789;52.030;7.110;2022-10-31T14:19:26;25.85;;;15.75;;
34960;SDS011;30789;52.030;7.110;2022-10-31T14:21:53;27.52;;;15.30;;
34960;SDS011;30789;52.030;7.110;2022-10-31T14:24:33;23.58;;;15.27;;
34960;SDS011;30789;52.030;7.110;2022-10-31T14:27:02;23.95;;;15.30;;
34960;SDS011;30789;52.030;7.110;2022-10-31T14:29:32;28.58;;;15.05;;
34960;SDS011;30789;52.030;7.110;2022-10-31T14:32:02;24.60;;;14.68;;
34960;SDS011;30789;52.030;7.110;2022-10-31T14:34:36;28.92;;;14.07;;
34960;SDS011;30789;52.030;7.110;2022-10-31T14:37:13;24.30;;;13.30;;
34960;SDS011;30789;52.030;7.110;2022-10-31T14:39:54;21.10;;;13.60;;
34960;SDS011;30789;52.030;7.110;2022-10-31T14:42:35;25.15;;;13.82;;
34960;SDS011;30789;52.030;7.110;2022-10-31T14:48:06;23.08;;;13.68;;
34960;SDS011;30789;52.030;7.110;2022-10-31T14:50:46;29.63;;;14.65;;
34960;SDS011;30789;52.030;7.110;2022-10-31T14:53:16;27.15;;;14.15;;